South Easton, Massachusetts
Current Conditions -  °F | °C
As of 6:53 PM on Saturday 22 Nov 2014 (Local Time) from KOWD Reporting Station
Overcast Overcast  
Wind Chill: 33°   Ceiling: 7500
Heat Index: 40°   Visibility: 10mi
Dew Point: 17°   Wind: 13mph
Humidity: 40%   Direction: 220°SW
Pressure: 30.14"   Gusts: NA
Location:  42.05°N, 71.08°W
Report Text: KOWD 222353Z 22011KT 10SM SCT060 OVC075 04/M08 A3014 RMK AO2 SLP205 T00441083 10072 20044 56012
Loading
Personal Weather Stations






























Interactive Weather Map New forecast layout! Learn more

10-Day Weather Forecast

Advertisements
Track Severe Weather on mobile